sensor_id;sensor_type;location;lat;lon;timestamp;P1;durP1;ratioP1;P2;durP2;ratioP2
3663;SDS011;1848;51.042;7.066;2022-07-23T00:00:56;29.47;;;26.13;;
3663;SDS011;1848;51.042;7.066;2022-07-23T00:03:22;29.57;;;25.87;;
3663;SDS011;1848;51.042;7.066;2022-07-23T00:05:49;31.57;;;27.23;;
3663;SDS011;1848;51.042;7.066;2022-07-23T00:08:16;32.20;;;26.50;;
3663;SDS011;1848;51.042;7.066;2022-07-23T00:10:42;30.57;;;25.60;;
3663;SDS011;1848;51.042;7.066;2022-07-23T00:13:09;36.23;;;28.00;;
3663;SDS011;1848;51.042;7.066;2022-07-23T00:15:35;38.30;;;28.63;;
3663;SDS011;1848;51.042;7.066;2022-07-23T00:18:02;36.77;;;30.77;;
3663;SDS011;1848;51.042;7.066;2022-07-23T00:20:28;40.90;;;30.63;;
3663;SDS011;1848;51.042;7.066;2022-07-23T00:22:55;44.23;;;31.53;;
3663;SDS011;1848;51.042;7.066;2022-07-23T00:25:24;35.87;;;29.67;;
3663;SDS011;1848;51.042;7.066;2022-07-23T00:27:55;35.13;;;29.00;;
3663;SDS011;1848;51.042;7.066;2022-07-23T00:30:22;36.10;;;30.70;;
3663;SDS011;1848;51.042;7.066;2022-07-23T00:32:49;33.23;;;29.20;;
3663;SDS011;1848;51.042;7.066;2022-07-23T00:35:22;32.13;;;27.60;;
3663;SDS011;1848;51.042;7.066;2022-07-23T00:37:50;33.30;;;28.00;;
3663;SDS011;1848;51.042;7.066;2022-07-23T00:40:16;33.40;;;27.80;;
3663;SDS011;1848;51.042;7.066;2022-07-23T00:42:43;31.03;;;27.70;;
3663;SDS011;1848;51.042;7.066;2022-07-23T00:45:10;34.63;;;27.40;;
3663;SDS011;1848;51.042;7.066;2022-07-23T00:47:37;34.13;;;28.77;;
3663;SDS011;1848;51.042;7.066;2022-07-23T00:50:03;34.10;;;25.90;;
3663;SDS011;1848;51.042;7.066;2022-07-23T00:52:32;36.00;;;29.50;;
3663;SDS011;1848;51.042;7.066;2022-07-23T00:54:59;34.60;;;27.80;;
3663;SDS011;1848;51.042;7.066;2022-07-23T00:57:25;41.33;;;30.07;;
3663;SDS011;1848;51.042;7.066;2022-07-23T00:59:54;42.37;;;31.17;;
3663;SDS011;1848;51.042;7.066;2022-07-23T01:02:21;41.57;;;30.40;;
3663;SDS011;1848;51.042;7.066;2022-07-23T01:04:47;33.70;;;27.70;;
3663;SDS011;1848;51.042;7.066;2022-07-23T01:07:14;34.63;;;27.57;;
3663;SDS011;1848;51.042;7.066;2022-07-23T01:09:41;36.33;;;28.37;;
3663;SDS011;1848;51.042;7.066;2022-07-23T01:12:08;41.83;;;29.23;;
3663;SDS011;1848;51.042;7.066;2022-07-23T01:14:34;39.23;;;28.63;;
3663;SDS011;1848;51.042;7.066;2022-07-23T01:17:01;33.63;;;27.27;;
3663;SDS011;1848;51.042;7.066;2022-07-23T01:19:27;37.10;;;28.63;;
3663;SDS011;1848;51.042;7.066;2022-07-23T01:21:54;46.63;;;31.37;;
3663;SDS011;1848;51.042;7.066;2022-07-23T01:24:23;35.57;;;29.33;;
3663;SDS011;1848;51.042;7.066;2022-07-23T01:26:49;38.97;;;27.73;;
3663;SDS011;1848;51.042;7.066;2022-07-23T01:29:16;36.90;;;29.23;;
3663;SDS011;1848;51.042;7.066;2022-07-23T01:31:43;43.53;;;29.10;;
3663;SDS011;1848;51.042;7.066;2022-07-23T01:34:10;36.70;;;28.63;;
3663;SDS011;1848;51.042;7.066;2022-07-23T01:36:37;43.07;;;28.90;;
3663;SDS011;1848;51.042;7.066;2022-07-23T01:39:04;36.57;;;26.80;;
3663;SDS011;1848;51.042;7.066;2022-07-23T01:41:31;32.03;;;27.53;;
3663;SDS011;1848;51.042;7.066;2022-07-23T01:44:00;27.97;;;24.63;;
3663;SDS011;1848;51.042;7.066;2022-07-23T01:46:26;27.50;;;22.40;;
3663;SDS011;1848;51.042;7.066;2022-07-23T01:48:53;32.90;;;25.30;;
3663;SDS011;1848;51.042;7.066;2022-07-23T01:51:20;31.57;;;25.63;;
3663;SDS011;1848;51.042;7.066;2022-07-23T01:53:46;29.90;;;25.53;;
3663;SDS011;1848;51.042;7.066;2022-07-23T01:56:12;29.50;;;25.23;;
3663;SDS011;1848;51.042;7.066;2022-07-23T01:58:41;29.33;;;24.07;;
3663;SDS011;1848;51.042;7.066;2022-07-23T02:01:07;28.97;;;24.57;;
3663;SDS011;1848;51.042;7.066;2022-07-23T02:03:34;30.80;;;24.87;;
3663;SDS011;1848;51.042;7.066;2022-07-23T02:06:00;31.27;;;24.87;;
3663;SDS011;1848;51.042;7.066;2022-07-23T02:08:27;28.50;;;25.40;;
3663;SDS011;1848;51.042;7.066;2022-07-23T02:10:53;30.90;;;25.53;;
3663;SDS011;1848;51.042;7.066;2022-07-23T02:13:19;32.33;;;25.83;;
3663;SDS011;1848;51.042;7.066;2022-07-23T02:15:46;34.03;;;24.83;;
3663;SDS011;1848;51.042;7.066;2022-07-23T02:18:14;35.10;;;25.90;;
3663;SDS011;1848;51.042;7.066;2022-07-23T02:20:41;35.23;;;28.10;;
3663;SDS011;1848;51.042;7.066;2022-07-23T02:23:08;32.63;;;26.83;;
3663;SDS011;1848;51.042;7.066;2022-07-23T02:25:34;30.90;;;25.40;;
3663;SDS011;1848;51.042;7.066;2022-07-23T02:28:01;31.23;;;26.13;;
3663;SDS011;1848;51.042;7.066;2022-07-23T02:30:28;33.13;;;26.20;;
3663;SDS011;1848;51.042;7.066;2022-07-23T02:32:55;32.73;;;25.43;;
3663;SDS011;1848;51.042;7.066;2022-07-23T02:35:21;34.30;;;24.60;;
3663;SDS011;1848;51.042;7.066;2022-07-23T02:37:48;27.60;;;23.67;;
3663;SDS011;1848;51.042;7.066;2022-07-23T02:40:16;28.53;;;24.97;;
3663;SDS011;1848;51.042;7.066;2022-07-23T02:42:43;32.50;;;24.13;;
3663;SDS011;1848;51.042;7.066;2022-07-23T02:45:09;29.03;;;25.07;;
3663;SDS011;1848;51.042;7.066;2022-07-23T02:47:36;29.00;;;24.77;;
3663;SDS011;1848;51.042;7.066;2022-07-23T02:50:02;29.90;;;25.00;;
3663;SDS011;1848;51.042;7.066;2022-07-23T02:52:31;31.67;;;24.80;;
3663;SDS011;1848;51.042;7.066;2022-07-23T02:54:57;29.67;;;25.13;;
3663;SDS011;1848;51.042;7.066;2022-07-23T02:57:24;27.87;;;24.07;;
3663;SDS011;1848;51.042;7.066;2022-07-23T02:59:50;31.33;;;23.90;;
3663;SDS011;1848;51.042;7.066;2022-07-23T03:02:16;30.60;;;23.63;;
3663;SDS011;1848;51.042;7.066;2022-07-23T03:04:43;27.87;;;22.23;;
3663;SDS011;1848;51.042;7.066;2022-07-23T03:07:10;32.00;;;25.20;;
3663;SDS011;1848;51.042;7.066;2022-07-23T03:09:36;40.73;;;23.80;;
3663;SDS011;1848;51.042;7.066;2022-07-23T03:12:02;29.97;;;23.97;;
3663;SDS011;1848;51.042;7.066;2022-07-23T03:14:29;30.67;;;23.33;;
3663;SDS011;1848;51.042;7.066;2022-07-23T03:16:55;30.13;;;23.57;;
3663;SDS011;1848;51.042;7.066;2022-07-23T03:19:22;26.20;;;22.30;;
3663;SDS011;1848;51.042;7.066;2022-07-23T03:21:49;26.83;;;23.00;;
3663;SDS011;1848;51.042;7.066;2022-07-23T03:24:15;27.37;;;21.50;;
3663;SDS011;1848;51.042;7.066;2022-07-23T03:26:44;27.60;;;24.00;;
3663;SDS011;1848;51.042;7.066;2022-07-23T03:29:11;31.97;;;24.17;;
3663;SDS011;1848;51.042;7.066;2022-07-23T03:31:37;32.53;;;24.83;;
3663;SDS011;1848;51.042;7.066;2022-07-23T03:34:04;30.80;;;24.87;;
3663;SDS011;1848;51.042;7.066;2022-07-23T03:36:30;50.87;;;25.30;;
3663;SDS011;1848;51.042;7.066;2022-07-23T03:38:57;31.10;;;23.90;;
3663;SDS011;1848;51.042;7.066;2022-07-23T03:41:26;28.67;;;23.47;;
3663;SDS011;1848;51.042;7.066;2022-07-23T03:43:52;29.07;;;24.80;;
3663;SDS011;1848;51.042;7.066;2022-07-23T03:46:19;30.30;;;24.53;;
3663;SDS011;1848;51.042;7.066;2022-07-23T03:48:45;28.00;;;23.60;;
3663;SDS011;1848;51.042;7.066;2022-07-23T03:51:12;32.20;;;23.73;;
3663;SDS011;1848;51.042;7.066;2022-07-23T03:53:38;36.10;;;26.53;;
3663;SDS011;1848;51.042;7.066;2022-07-23T03:56:04;34.23;;;24.30;;
3663;SDS011;1848;51.042;7.066;2022-07-23T03:58:31;31.33;;;24.20;;
3663;SDS011;1848;51.042;7.066;2022-07-23T04:00:57;29.87;;;24.50;;
3663;SDS011;1848;51.042;7.066;2022-07-23T04:03:24;29.40;;;23.83;;
3663;SDS011;1848;51.042;7.066;2022-07-23T04:05:50;28.50;;;23.33;;
3663;SDS011;1848;51.042;7.066;2022-07-23T04:08:17;29.87;;;23.07;;
3663;SDS011;1848;51.042;7.066;2022-07-23T04:10:43;28.77;;;23.03;;
3663;SDS011;1848;51.042;7.066;2022-07-23T04:13:10;28.30;;;22.67;;
3663;SDS011;1848;51.042;7.066;2022-07-23T04:15:36;32.37;;;26.47;;
3663;SDS011;1848;51.042;7.066;2022-07-23T04:18:04;31.37;;;24.60;;
3663;SDS011;1848;51.042;7.066;2022-07-23T04:20:30;29.63;;;24.37;;
3663;SDS011;1848;51.042;7.066;2022-07-23T04:22:59;31.13;;;24.80;;
3663;SDS011;1848;51.042;7.066;2022-07-23T04:25:26;31.00;;;25.03;;
3663;SDS011;1848;51.042;7.066;2022-07-23T04:27:53;27.60;;;24.10;;
3663;SDS011;1848;51.042;7.066;2022-07-23T04:30:19;33.10;;;24.83;;
3663;SDS011;1848;51.042;7.066;2022-07-23T04:32:46;29.07;;;24.80;;
3663;SDS011;1848;51.042;7.066;2022-07-23T04:35:12;25.33;;;22.63;;
3663;SDS011;1848;51.042;7.066;2022-07-23T04:37:39;30.17;;;24.90;;
3663;SDS011;1848;51.042;7.066;2022-07-23T04:40:05;29.00;;;24.57;;
3663;SDS011;1848;51.042;7.066;2022-07-23T04:42:32;28.57;;;24.33;;
3663;SDS011;1848;51.042;7.066;2022-07-23T04:44:58;27.77;;;23.50;;
3663;SDS011;1848;51.042;7.066;2022-07-23T04:47:25;30.63;;;24.43;;
3663;SDS011;1848;51.042;7.066;2022-07-23T04:49:53;29.07;;;23.90;;
3663;SDS011;1848;51.042;7.066;2022-07-23T04:52:20;29.47;;;23.80;;
3663;SDS011;1848;51.042;7.066;2022-07-23T04:54:46;29.07;;;23.57;;
3663;SDS011;1848;51.042;7.066;2022-07-23T04:57:12;28.53;;;24.50;;
3663;SDS011;1848;51.042;7.066;2022-07-23T04:59:39;26.83;;;23.37;;
3663;SDS011;1848;51.042;7.066;2022-07-23T05:02:05;32.93;;;23.63;;
3663;SDS011;1848;51.042;7.066;2022-07-23T05:04:32;26.83;;;22.40;;
3663;SDS011;1848;51.042;7.066;2022-07-23T05:06:59;27.93;;;23.00;;
3663;SDS011;1848;51.042;7.066;2022-07-23T05:09:26;25.37;;;22.30;;
3663;SDS011;1848;51.042;7.066;2022-07-23T05:11:52;28.07;;;22.30;;
3663;SDS011;1848;51.042;7.066;2022-07-23T05:14:19;27.30;;;22.03;;
3663;SDS011;1848;51.042;7.066;2022-07-23T05:16:45;28.83;;;22.80;;
3663;SDS011;1848;51.042;7.066;2022-07-23T05:19:11;27.90;;;22.03;;
3663;SDS011;1848;51.042;7.066;2022-07-23T05:21:38;28.97;;;22.90;;
3663;SDS011;1848;51.042;7.066;2022-07-23T05:24:05;29.43;;;23.77;;
3663;SDS011;1848;51.042;7.066;2022-07-23T05:26:32;28.57;;;22.00;;
3663;SDS011;1848;51.042;7.066;2022-07-23T05:28:58;30.00;;;22.50;;
3663;SDS011;1848;51.042;7.066;2022-07-23T05:31:25;29.57;;;21.67;;
3663;SDS011;1848;51.042;7.066;2022-07-23T05:33:51;29.70;;;22.70;;
3663;SDS011;1848;51.042;7.066;2022-07-23T05:36:18;31.87;;;21.70;;
3663;SDS011;1848;51.042;7.066;2022-07-23T05:38:44;26.50;;;22.40;;
3663;SDS011;1848;51.042;7.066;2022-07-23T05:41:10;29.20;;;21.73;;
3663;SDS011;1848;51.042;7.066;2022-07-23T05:43:37;28.67;;;22.40;;
3663;SDS011;1848;51.042;7.066;2022-07-23T05:46:03;29.40;;;22.40;;
3663;SDS011;1848;51.042;7.066;2022-07-23T05:48:30;32.83;;;21.67;;
3663;SDS011;1848;51.042;7.066;2022-07-23T05:50:56;24.83;;;20.90;;
3663;SDS011;1848;51.042;7.066;2022-07-23T05:53:23;26.80;;;21.20;;
3663;SDS011;1848;51.042;7.066;2022-07-23T05:55:49;28.13;;;21.40;;
3663;SDS011;1848;51.042;7.066;2022-07-23T05:58:16;29.90;;;21.70;;
3663;SDS011;1848;51.042;7.066;2022-07-23T06:00:42;30.63;;;21.43;;
3663;SDS011;1848;51.042;7.066;2022-07-23T06:03:08;32.80;;;22.60;;
3663;SDS011;1848;51.042;7.066;2022-07-23T06:05:35;27.83;;;20.57;;
3663;SDS011;1848;51.042;7.066;2022-07-23T06:08:01;30.60;;;22.40;;
3663;SDS011;1848;51.042;7.066;2022-07-23T06:10:28;31.60;;;21.53;;
3663;SDS011;1848;51.042;7.066;2022-07-23T06:12:54;33.33;;;21.47;;
3663;SDS011;1848;51.042;7.066;2022-07-23T06:15:27;27.47;;;20.67;;
3663;SDS011;1848;51.042;7.066;2022-07-23T06:17:53;28.40;;;21.60;;
3663;SDS011;1848;51.042;7.066;2022-07-23T06:20:20;29.30;;;21.00;;
3663;SDS011;1848;51.042;7.066;2022-07-23T06:22:46;25.40;;;20.77;;
3663;SDS011;1848;51.042;7.066;2022-07-23T06:25:13;26.03;;;20.70;;
3663;SDS011;1848;51.042;7.066;2022-07-23T06:27:44;27.33;;;21.23;;
3663;SDS011;1848;51.042;7.066;2022-07-23T06:30:11;25.33;;;18.87;;
3663;SDS011;1848;51.042;7.066;2022-07-23T06:32:38;25.77;;;18.97;;
3663;SDS011;1848;51.042;7.066;2022-07-23T06:35:05;21.33;;;18.83;;
3663;SDS011;1848;51.042;7.066;2022-07-23T06:37:31;22.57;;;18.40;;
3663;SDS011;1848;51.042;7.066;2022-07-23T06:39:58;23.30;;;19.53;;
3663;SDS011;1848;51.042;7.066;2022-07-23T06:42:24;24.90;;;19.43;;
3663;SDS011;1848;51.042;7.066;2022-07-23T06:44:50;22.57;;;17.37;;
3663;SDS011;1848;51.042;7.066;2022-07-23T06:47:17;23.77;;;19.20;;
3663;SDS011;1848;51.042;7.066;2022-07-23T06:49:43;23.67;;;18.83;;
3663;SDS011;1848;51.042;7.066;2022-07-23T06:52:10;25.80;;;18.13;;
3663;SDS011;1848;51.042;7.066;2022-07-23T06:54:36;24.37;;;18.90;;
3663;SDS011;1848;51.042;7.066;2022-07-23T06:57:02;23.60;;;19.97;;
3663;SDS011;1848;51.042;7.066;2022-07-23T06:59:29;24.57;;;18.43;;
3663;SDS011;1848;51.042;7.066;2022-07-23T07:01:55;23.17;;;18.00;;
3663;SDS011;1848;51.042;7.066;2022-07-23T07:04:23;22.40;;;18.23;;
3663;SDS011;1848;51.042;7.066;2022-07-23T07:06:50;21.53;;;17.17;;
3663;SDS011;1848;51.042;7.066;2022-07-23T07:09:16;19.90;;;15.77;;
3663;SDS011;1848;51.042;7.066;2022-07-23T07:11:44;17.70;;;15.40;;
3663;SDS011;1848;51.042;7.066;2022-07-23T07:14:10;21.10;;;15.70;;
3663;SDS011;1848;51.042;7.066;2022-07-23T07:16:36;21.20;;;15.97;;
3663;SDS011;1848;51.042;7.066;2022-07-23T07:19:03;22.00;;;16.97;;
3663;SDS011;1848;51.042;7.066;2022-07-23T07:21:30;18.13;;;15.03;;
3663;SDS011;1848;51.042;7.066;2022-07-23T07:23:56;21.37;;;15.60;;
3663;SDS011;1848;51.042;7.066;2022-07-23T07:26:23;23.50;;;15.50;;
3663;SDS011;1848;51.042;7.066;2022-07-23T07:28:49;24.53;;;15.53;;
3663;SDS011;1848;51.042;7.066;2022-07-23T07:31:16;22.60;;;15.27;;
3663;SDS011;1848;51.042;7.066;2022-07-23T07:33:43;19.07;;;15.63;;
3663;SDS011;1848;51.042;7.066;2022-07-23T07:36:10;17.07;;;13.87;;
3663;SDS011;1848;51.042;7.066;2022-07-23T07:38:43;18.93;;;14.47;;
3663;SDS011;1848;51.042;7.066;2022-07-23T07:41:10;16.70;;;14.87;;
3663;SDS011;1848;51.042;7.066;2022-07-23T07:43:36;17.77;;;14.40;;
3663;SDS011;1848;51.042;7.066;2022-07-23T07:46:03;21.33;;;16.27;;
3663;SDS011;1848;51.042;7.066;2022-07-23T07:48:30;22.03;;;16.30;;
3663;SDS011;1848;51.042;7.066;2022-07-23T07:50:57;20.27;;;15.70;;
3663;SDS011;1848;51.042;7.066;2022-07-23T07:53:24;21.43;;;15.73;;
3663;SDS011;1848;51.042;7.066;2022-07-23T07:55:51;22.47;;;15.70;;
3663;SDS011;1848;51.042;7.066;2022-07-23T07:58:17;20.10;;;15.70;;
3663;SDS011;1848;51.042;7.066;2022-07-23T08:00:44;20.00;;;16.20;;
3663;SDS011;1848;51.042;7.066;2022-07-23T08:03:10;19.93;;;16.30;;
3663;SDS011;1848;51.042;7.066;2022-07-23T08:05:37;22.73;;;15.87;;
3663;SDS011;1848;51.042;7.066;2022-07-23T08:08:04;19.20;;;16.73;;
3663;SDS011;1848;51.042;7.066;2022-07-23T08:10:30;19.37;;;16.83;;
3663;SDS011;1848;51.042;7.066;2022-07-23T08:12:58;21.47;;;17.33;;
3663;SDS011;1848;51.042;7.066;2022-07-23T08:15:25;21.73;;;16.73;;
3663;SDS011;1848;51.042;7.066;2022-07-23T08:17:53;19.37;;;15.27;;
3663;SDS011;1848;51.042;7.066;2022-07-23T08:20:21;20.53;;;14.87;;
3663;SDS011;1848;51.042;7.066;2022-07-23T08:22:50;19.07;;;14.63;;
3663;SDS011;1848;51.042;7.066;2022-07-23T08:25:21;23.50;;;14.13;;
3663;SDS011;1848;51.042;7.066;2022-07-23T08:27:50;14.77;;;12.00;;
3663;SDS011;1848;51.042;7.066;2022-07-23T08:30:17;18.13;;;12.70;;
3663;SDS011;1848;51.042;7.066;2022-07-23T08:32:47;16.60;;;13.30;;
3663;SDS011;1848;51.042;7.066;2022-07-23T08:35:16;16.87;;;12.70;;
3663;SDS011;1848;51.042;7.066;2022-07-23T08:37:43;18.80;;;13.33;;
3663;SDS011;1848;51.042;7.066;2022-07-23T08:40:10;15.00;;;13.17;;
3663;SDS011;1848;51.042;7.066;2022-07-23T08:42:37;16.50;;;12.50;;
3663;SDS011;1848;51.042;7.066;2022-07-23T08:45:03;15.20;;;12.87;;
3663;SDS011;1848;51.042;7.066;2022-07-23T08:47:32;19.83;;;14.83;;
3663;SDS011;1848;51.042;7.066;2022-07-23T08:49:59;16.17;;;13.47;;
3663;SDS011;1848;51.042;7.066;2022-07-23T08:52:27;14.07;;;12.60;;
3663;SDS011;1848;51.042;7.066;2022-07-23T08:54:56;17.80;;;13.00;;
3663;SDS011;1848;51.042;7.066;2022-07-23T08:57:23;13.00;;;11.60;;
3663;SDS011;1848;51.042;7.066;2022-07-23T08:59:49;11.70;;;10.43;;
3663;SDS011;1848;51.042;7.066;2022-07-23T09:02:16;12.07;;;10.60;;
3663;SDS011;1848;51.042;7.066;2022-07-23T09:04:42;12.13;;;10.63;;
3663;SDS011;1848;51.042;7.066;2022-07-23T09:07:09;17.17;;;9.77;;
3663;SDS011;1848;51.042;7.066;2022-07-23T09:09:35;11.67;;;10.43;;
3663;SDS011;1848;51.042;7.066;2022-07-23T09:12:06;13.90;;;11.07;;
3663;SDS011;1848;51.042;7.066;2022-07-23T09:14:42;12.33;;;10.27;;
3663;SDS011;1848;51.042;7.066;2022-07-23T09:17:11;13.83;;;11.53;;
3663;SDS011;1848;51.042;7.066;2022-07-23T09:19:40;18.10;;;12.53;;
3663;SDS011;1848;51.042;7.066;2022-07-23T09:22:20;11.87;;;10.60;;
3663;SDS011;1848;51.042;7.066;2022-07-23T09:25:07;11.27;;;9.70;;
3663;SDS011;1848;51.042;7.066;2022-07-23T09:27:52;12.27;;;11.00;;
3663;SDS011;1848;51.042;7.066;2022-07-23T09:30:24;12.30;;;11.00;;
3663;SDS011;1848;51.042;7.066;2022-07-23T09:33:04;12.20;;;11.00;;
3663;SDS011;1848;51.042;7.066;2022-07-23T09:35:51;11.97;;;10.67;;
3663;SDS011;1848;51.042;7.066;2022-07-23T09:38:18;13.43;;;11.00;;
3663;SDS011;1848;51.042;7.066;2022-07-23T09:40:46;12.73;;;11.40;;
3663;SDS011;1848;51.042;7.066;2022-07-23T09:43:31;12.27;;;11.07;;
3663;SDS011;1848;51.042;7.066;2022-07-23T09:46:34;12.80;;;10.30;;
3663;SDS011;1848;51.042;7.066;2022-07-23T09:48:54;15.00;;;10.57;;
3663;SDS011;1848;51.042;7.066;2022-07-23T09:51:24;11.20;;;10.10;;
3663;SDS011;1848;51.042;7.066;2022-07-23T09:53:54;13.50;;;10.93;;
3663;SDS011;1848;51.042;7.066;2022-07-23T09:56:20;15.07;;;11.30;;
3663;SDS011;1848;51.042;7.066;2022-07-23T09:58:52;12.40;;;10.20;;
3663;SDS011;1848;51.042;7.066;2022-07-23T10:01:29;11.63;;;9.63;;
3663;SDS011;1848;51.042;7.066;2022-07-23T10:03:57;13.10;;;10.67;;
3663;SDS011;1848;51.042;7.066;2022-07-23T10:06:25;12.20;;;11.20;;
3663;SDS011;1848;51.042;7.066;2022-07-23T10:08:54;15.33;;;10.30;;
3663;SDS011;1848;51.042;7.066;2022-07-23T10:11:24;12.17;;;10.97;;
3663;SDS011;1848;51.042;7.066;2022-07-23T10:13:53;14.60;;;12.23;;
3663;SDS011;1848;51.042;7.066;2022-07-23T10:16:20;12.97;;;11.67;;
3663;SDS011;1848;51.042;7.066;2022-07-23T10:18:52;14.20;;;12.20;;
3663;SDS011;1848;51.042;7.066;2022-07-23T10:21:27;13.53;;;12.23;;
3663;SDS011;1848;51.042;7.066;2022-07-23T10:27:31;9.47;;;8.53;;
3663;SDS011;1848;51.042;7.066;2022-07-23T10:30:26;11.10;;;10.00;;
3663;SDS011;1848;51.042;7.066;2022-07-23T10:33:15;7.83;;;7.13;;
3663;SDS011;1848;51.042;7.066;2022-07-23T10:36:04;9.80;;;9.00;;
3663;SDS011;1848;51.042;7.066;2022-07-23T10:41:14;10.13;;;9.23;;
3663;SDS011;1848;51.042;7.066;2022-07-23T10:49:44;9.90;;;9.00;;
3663;SDS011;1848;51.042;7.066;2022-07-23T10:54:52;9.80;;;8.90;;
3663;SDS011;1848;51.042;7.066;2022-07-23T10:57:20;10.17;;;9.27;;
3663;SDS011;1848;51.042;7.066;2022-07-23T11:02:29;8.60;;;7.80;;
3663;SDS011;1848;51.042;7.066;2022-07-23T11:05:06;8.07;;;7.37;;
3663;SDS011;1848;51.042;7.066;2022-07-23T11:07:35;8.20;;;7.50;;
3663;SDS011;1848;51.042;7.066;2022-07-23T11:10:03;6.73;;;6.23;;
3663;SDS011;1848;51.042;7.066;2022-07-23T11:22:35;8.77;;;8.00;;
3663;SDS011;1848;51.042;7.066;2022-07-23T11:25:05;11.53;;;8.10;;
3663;SDS011;1848;51.042;7.066;2022-07-23T11:27:42;7.27;;;6.70;;
3663;SDS011;1848;51.042;7.066;2022-07-23T11:30:11;7.13;;;6.43;;
3663;SDS011;1848;51.042;7.066;2022-07-23T11:35:34;7.80;;;7.17;;
3663;SDS011;1848;51.042;7.066;2022-07-23T11:38:16;9.33;;;8.53;;
3663;SDS011;1848;51.042;7.066;2022-07-23T11:40:46;8.80;;;8.00;;
3663;SDS011;1848;51.042;7.066;2022-07-23T11:43:17;10.33;;;9.57;;
3663;SDS011;1848;51.042;7.066;2022-07-23T11:45:45;9.00;;;8.17;;
3663;SDS011;1848;51.042;7.066;2022-07-23T11:48:21;10.33;;;9.47;;
3663;SDS011;1848;51.042;7.066;2022-07-23T11:50:50;9.93;;;9.23;;
3663;SDS011;1848;51.042;7.066;2022-07-23T11:53:28;9.60;;;8.90;;
3663;SDS011;1848;51.042;7.066;2022-07-23T11:56:05;9.60;;;8.80;;
3663;SDS011;1848;51.042;7.066;2022-07-23T11:58:33;8.77;;;8.03;;
3663;SDS011;1848;51.042;7.066;2022-07-23T12:01:00;9.07;;;8.13;;
3663;SDS011;1848;51.042;7.066;2022-07-23T12:03:27;9.03;;;8.33;;
3663;SDS011;1848;51.042;7.066;2022-07-23T12:05:57;10.03;;;9.30;;
3663;SDS011;1848;51.042;7.066;2022-07-23T12:08:25;9.50;;;8.60;;
3663;SDS011;1848;51.042;7.066;2022-07-23T12:10:52;10.20;;;9.30;;
3663;SDS011;1848;51.042;7.066;2022-07-23T12:13:19;9.67;;;8.93;;
3663;SDS011;1848;51.042;7.066;2022-07-23T12:15:50;9.77;;;8.73;;
3663;SDS011;1848;51.042;7.066;2022-07-23T12:18:20;9.00;;;8.10;;
3663;SDS011;1848;51.042;7.066;2022-07-23T12:20:49;8.77;;;7.97;;
3663;SDS011;1848;51.042;7.066;2022-07-23T12:23:18;10.80;;;8.43;;
3663;SDS011;1848;51.042;7.066;2022-07-23T12:25:47;8.13;;;7.53;;
3663;SDS011;1848;51.042;7.066;2022-07-23T12:28:16;9.20;;;8.40;;
3663;SDS011;1848;51.042;7.066;2022-07-23T12:30:45;10.03;;;9.03;;
3663;SDS011;1848;51.042;7.066;2022-07-23T12:35:53;9.40;;;8.60;;
3663;SDS011;1848;51.042;7.066;2022-07-23T12:38:22;9.20;;;8.43;;
3663;SDS011;1848;51.042;7.066;2022-07-23T12:40:54;9.20;;;8.40;;
3663;SDS011;1848;51.042;7.066;2022-07-23T12:45:55;11.73;;;10.73;;
3663;SDS011;1848;51.042;7.066;2022-07-23T12:48:28;12.10;;;9.77;;
3663;SDS011;1848;51.042;7.066;2022-07-23T12:50:56;10.07;;;9.17;;
3663;SDS011;1848;51.042;7.066;2022-07-23T12:53:29;11.10;;;10.20;;
3663;SDS011;1848;51.042;7.066;2022-07-23T12:55:58;14.80;;;10.23;;
3663;SDS011;1848;51.042;7.066;2022-07-23T13:04:11;12.03;;;10.87;;
3663;SDS011;1848;51.042;7.066;2022-07-23T13:09:09;10.90;;;9.90;;
3663;SDS011;1848;51.042;7.066;2022-07-23T13:11:41;11.43;;;10.50;;
3663;SDS011;1848;51.042;7.066;2022-07-23T13:14:08;12.27;;;11.00;;
3663;SDS011;1848;51.042;7.066;2022-07-23T13:16:35;11.20;;;10.40;;
3663;SDS011;1848;51.042;7.066;2022-07-23T13:19:03;11.43;;;10.40;;
3663;SDS011;1848;51.042;7.066;2022-07-23T13:21:30;11.30;;;10.20;;
3663;SDS011;1848;51.042;7.066;2022-07-23T13:23:57;10.80;;;9.80;;
3663;SDS011;1848;51.042;7.066;2022-07-23T13:26:23;10.13;;;9.37;;
3663;SDS011;1848;51.042;7.066;2022-07-23T13:28:50;10.80;;;9.90;;
3663;SDS011;1848;51.042;7.066;2022-07-23T13:31:17;9.70;;;8.90;;
3663;SDS011;1848;51.042;7.066;2022-07-23T13:33:44;9.70;;;8.90;;
3663;SDS011;1848;51.042;7.066;2022-07-23T13:36:13;9.43;;;8.50;;
3663;SDS011;1848;51.042;7.066;2022-07-23T13:38:40;9.90;;;8.90;;
3663;SDS011;1848;51.042;7.066;2022-07-23T13:41:07;8.60;;;7.90;;
3663;SDS011;1848;51.042;7.066;2022-07-23T13:43:37;9.70;;;8.77;;
3663;SDS011;1848;51.042;7.066;2022-07-23T13:46:04;11.13;;;10.07;;
3663;SDS011;1848;51.042;7.066;2022-07-23T13:48:31;9.53;;;8.63;;
3663;SDS011;1848;51.042;7.066;2022-07-23T13:50:58;9.27;;;8.40;;
3663;SDS011;1848;51.042;7.066;2022-07-23T13:53:26;8.63;;;7.93;;
3663;SDS011;1848;51.042;7.066;2022-07-23T13:55:53;9.60;;;8.70;;
3663;SDS011;1848;51.042;7.066;2022-07-23T13:58:21;11.83;;;7.50;;
3663;SDS011;1848;51.042;7.066;2022-07-23T14:01:09;8.23;;;7.50;;
3663;SDS011;1848;51.042;7.066;2022-07-23T14:03:35;8.27;;;7.50;;
3663;SDS011;1848;51.042;7.066;2022-07-23T14:06:02;8.70;;;7.90;;
3663;SDS011;1848;51.042;7.066;2022-07-23T14:08:28;8.90;;;7.80;;
3663;SDS011;1848;51.042;7.066;2022-07-23T14:10:55;7.30;;;6.60;;
3663;SDS011;1848;51.042;7.066;2022-07-23T14:13:24;7.17;;;6.33;;
3663;SDS011;1848;51.042;7.066;2022-07-23T14:15:51;8.47;;;6.90;;
3663;SDS011;1848;51.042;7.066;2022-07-23T14:18:18;7.63;;;6.93;;
3663;SDS011;1848;51.042;7.066;2022-07-23T14:20:44;10.70;;;6.60;;
3663;SDS011;1848;51.042;7.066;2022-07-23T14:23:11;7.53;;;6.87;;
3663;SDS011;1848;51.042;7.066;2022-07-23T14:25:39;7.03;;;6.43;;
3663;SDS011;1848;51.042;7.066;2022-07-23T14:28:05;7.17;;;5.87;;
3663;SDS011;1848;51.042;7.066;2022-07-23T14:30:34;6.70;;;6.20;;
3663;SDS011;1848;51.042;7.066;2022-07-23T14:33:01;6.83;;;6.17;;
3663;SDS011;1848;51.042;7.066;2022-07-23T14:35:27;6.53;;;5.90;;
3663;SDS011;1848;51.042;7.066;2022-07-23T14:37:54;7.43;;;6.20;;
3663;SDS011;1848;51.042;7.066;2022-07-23T14:40:21;7.20;;;6.50;;
3663;SDS011;1848;51.042;7.066;2022-07-23T14:42:49;6.90;;;6.30;;
3663;SDS011;1848;51.042;7.066;2022-07-23T14:45:15;6.97;;;6.37;;
3663;SDS011;1848;51.042;7.066;2022-07-23T14:47:44;7.50;;;6.80;;
3663;SDS011;1848;51.042;7.066;2022-07-23T14:50:12;7.70;;;7.00;;
3663;SDS011;1848;51.042;7.066;2022-07-23T14:52:39;8.70;;;6.37;;
3663;SDS011;1848;51.042;7.066;2022-07-23T14:55:05;6.83;;;6.23;;
3663;SDS011;1848;51.042;7.066;2022-07-23T14:57:33;7.13;;;6.40;;
3663;SDS011;1848;51.042;7.066;2022-07-23T14:59:59;6.40;;;5.90;;
3663;SDS011;1848;51.042;7.066;2022-07-23T15:02:26;6.50;;;6.00;;
3663;SDS011;1848;51.042;7.066;2022-07-23T15:04:52;6.60;;;6.03;;
3663;SDS011;1848;51.042;7.066;2022-07-23T15:07:19;7.20;;;6.50;;
3663;SDS011;1848;51.042;7.066;2022-07-23T15:09:46;6.43;;;5.70;;
3663;SDS011;1848;51.042;7.066;2022-07-23T15:12:13;6.97;;;6.37;;
3663;SDS011;1848;51.042;7.066;2022-07-23T15:14:40;7.10;;;6.40;;
3663;SDS011;1848;51.042;7.066;2022-07-23T15:17:06;6.50;;;5.90;;
3663;SDS011;1848;51.042;7.066;2022-07-23T15:19:33;7.13;;;5.73;;
3663;SDS011;1848;51.042;7.066;2022-07-23T15:21:59;6.07;;;5.57;;
3663;SDS011;1848;51.042;7.066;2022-07-23T15:24:27;7.03;;;6.40;;
3663;SDS011;1848;51.042;7.066;2022-07-23T15:26:54;9.40;;;5.87;;
3663;SDS011;1848;51.042;7.066;2022-07-23T15:29:20;6.50;;;5.90;;
3663;SDS011;1848;51.042;7.066;2022-07-23T15:31:47;8.20;;;5.90;;
3663;SDS011;1848;51.042;7.066;2022-07-23T15:34:22;7.40;;;6.70;;
3663;SDS011;1848;51.042;7.066;2022-07-23T15:36:49;6.80;;;5.87;;
3663;SDS011;1848;51.042;7.066;2022-07-23T15:39:17;6.93;;;6.27;;
3663;SDS011;1848;51.042;7.066;2022-07-23T15:41:44;5.83;;;5.43;;
3663;SDS011;1848;51.042;7.066;2022-07-23T15:44:13;6.60;;;6.10;;